sensor_id;sensor_type;location;lat;lon;timestamp;pressure;altitude;pressure_sealevel;temperature;humidity
5350;BME280;2697;42.144;24.794;2023-04-27T00:01:30;155971.53;;;13.19;80.33
5350;BME280;2697;42.144;24.794;2023-04-27T00:03:57;155960.94;;;13.15;80.19
5350;BME280;2697;42.144;24.794;2023-04-27T00:06:22;155946.41;;;13.09;80.81
5350;BME280;2697;42.144;24.794;2023-04-27T00:08:48;155938.50;;;13.06;80.78
5350;BME280;2697;42.144;24.794;2023-04-27T00:11:13;155953.00;;;13.12;80.76
5350;BME280;2697;42.144;24.794;2023-04-27T00:13:39;155931.94;;;13.04;80.05
5350;BME280;2697;42.144;24.794;2023-04-27T00:16:04;155938.50;;;13.06;80.63
5350;BME280;2697;42.144;24.794;2023-04-27T00:18:31;155933.25;;;13.04;80.75
5350;BME280;2697;42.144;24.794;2023-04-27T00:20:57;155913.44;;;12.97;80.87
5350;BME280;2697;42.144;24.794;2023-04-27T00:23:23;155934.56;;;13.05;81.90
5350;BME280;2697;42.144;24.794;2023-04-27T00:25:48;155888.38;;;12.87;82.03
5350;BME280;2697;42.144;24.794;2023-04-27T00:28:13;155888.38;;;12.87;81.85
5350;BME280;2697;42.144;24.794;2023-04-27T00:30:39;155865.97;;;12.78;84.06
5350;BME280;2697;42.144;24.794;2023-04-27T00:33:04;155833.00;;;12.66;84.30
5350;BME280;2697;42.144;24.794;2023-04-27T00:35:34;155844.84;;;12.70;84.71
5350;BME280;2697;42.144;24.794;2023-04-27T00:37:59;155830.31;;;12.65;83.60
5350;BME280;2697;42.144;24.794;2023-04-27T00:40:25;155814.53;;;12.59;86.05
5350;BME280;2697;42.144;24.794;2023-04-27T00:42:50;155821.09;;;12.61;85.91
5350;BME280;2697;42.144;24.794;2023-04-27T00:45:15;155800.00;;;12.53;86.60
5350;BME280;2697;42.144;24.794;2023-04-27T00:47:41;155781.53;;;12.46;86.36
5350;BME280;2697;42.144;24.794;2023-04-27T00:50:07;155763.09;;;12.39;87.12
5350;BME280;2697;42.144;24.794;2023-04-27T00:52:37;155752.53;;;12.35;88.70
5350;BME280;2697;42.144;24.794;2023-04-27T00:55:04;155718.25;;;12.21;89.03
5350;BME280;2697;42.144;24.794;2023-04-27T00:57:30;155683.97;;;12.08;89.52
5350;BME280;2697;42.144;24.794;2023-04-27T00:59:56;155665.53;;;12.01;89.36
5350;BME280;2697;42.144;24.794;2023-04-27T01:02:21;155676.06;;;12.05;90.77
5350;BME280;2697;42.144;24.794;2023-04-27T01:04:47;155669.47;;;12.03;89.45
5350;BME280;2697;42.144;24.794;2023-04-27T01:07:15;155647.06;;;11.94;90.34
5350;BME280;2697;42.144;24.794;2023-04-27T01:09:40;155657.59;;;11.98;89.92
5350;BME280;2697;42.144;24.794;2023-04-27T01:12:06;155662.84;;;12.00;88.01
5350;BME280;2697;42.144;24.794;2023-04-27T01:14:32;155673.44;;;12.04;86.81
5350;BME280;2697;42.144;24.794;2023-04-27T01:16:57;155695.84;;;12.13;87.38
5350;BME280;2697;42.144;24.794;2023-04-27T01:19:23;155730.09;;;12.26;86.40
5350;BME280;2697;42.144;24.794;2023-04-27T01:21:48;155726.16;;;12.24;84.06
5350;BME280;2697;42.144;24.794;2023-04-27T01:24:13;155728.78;;;12.25;83.59
5350;BME280;2697;42.144;24.794;2023-04-27T01:26:39;155768.38;;;12.41;82.78
5350;BME280;2697;42.144;24.794;2023-04-27T01:29:04;155747.25;;;12.33;81.77
5350;BME280;2697;42.144;24.794;2023-04-27T01:31:30;155749.91;;;12.34;83.05
5350;BME280;2697;42.144;24.794;2023-04-27T01:33:57;155757.78;;;12.37;81.80
5350;BME280;2697;42.144;24.794;2023-04-27T01:36:22;155773.63;;;12.43;80.24
5350;BME280;2697;42.144;24.794;2023-04-27T01:38:48;155747.25;;;12.33;81.36
5350;BME280;2697;42.144;24.794;2023-04-27T01:41:13;155720.91;;;12.22;80.47
5350;BME280;2697;42.144;24.794;2023-04-27T01:43:38;155761.78;;;12.38;79.99
5350;BME280;2697;42.144;24.794;2023-04-27T01:46:08;155753.84;;;12.35;78.95
5350;BME280;2697;42.144;24.794;2023-04-27T01:48:34;155771.00;;;12.42;79.22
5350;BME280;2697;42.144;24.794;2023-04-27T01:51:00;155751.22;;;12.34;78.83
5350;BME280;2697;42.144;24.794;2023-04-27T01:53:26;155732.75;;;12.27;79.40
5350;BME280;2697;42.144;24.794;2023-04-27T01:55:51;155771.00;;;12.42;78.28
5350;BME280;2697;42.144;24.794;2023-04-27T01:58:16;155752.53;;;12.35;77.51
5350;BME280;2697;42.144;24.794;2023-04-27T02:00:42;155747.25;;;12.33;77.83
5350;BME280;2697;42.144;24.794;2023-04-27T02:03:07;155742.00;;;12.31;77.76
5350;BME280;2697;42.144;24.794;2023-04-27T02:05:33;155749.91;;;12.34;78.46
5350;BME280;2697;42.144;24.794;2023-04-27T02:07:58;155738.06;;;12.29;78.19
5350;BME280;2697;42.144;24.794;2023-04-27T02:10:23;155752.53;;;12.35;77.11
5350;BME280;2697;42.144;24.794;2023-04-27T02:12:49;155742.00;;;12.31;77.82
5350;BME280;2697;42.144;24.794;2023-04-27T02:15:14;155710.31;;;12.18;77.79
5350;BME280;2697;42.144;24.794;2023-04-27T02:17:40;155689.28;;;12.10;77.02
5350;BME280;2697;42.144;24.794;2023-04-27T02:20:06;155716.94;;;12.21;77.34
5350;BME280;2697;42.144;24.794;2023-04-27T02:22:32;155713.00;;;12.19;77.92
5350;BME280;2697;42.144;24.794;2023-04-27T02:24:58;155686.59;;;12.09;77.80
5350;BME280;2697;42.144;24.794;2023-04-27T02:27:24;155748.56;;;12.33;76.48
5350;BME280;2697;42.144;24.794;2023-04-27T02:29:49;155686.59;;;12.09;77.89
5350;BME280;2697;42.144;24.794;2023-04-27T02:32:15;155702.44;;;12.15;76.93
5350;BME280;2697;42.144;24.794;2023-04-27T02:34:40;155687.91;;;12.10;76.92
5350;BME280;2697;42.144;24.794;2023-04-27T02:37:05;155685.28;;;12.09;77.34
5350;BME280;2697;42.144;24.794;2023-04-27T02:39:31;155685.28;;;12.09;77.47
5350;BME280;2697;42.144;24.794;2023-04-27T02:41:56;155673.44;;;12.04;77.55
5350;BME280;2697;42.144;24.794;2023-04-27T02:44:21;155683.97;;;12.08;77.11
5350;BME280;2697;42.144;24.794;2023-04-27T02:46:47;155678.69;;;12.06;76.95
5350;BME280;2697;42.144;24.794;2023-04-27T02:49:12;155683.97;;;12.08;77.60
5350;BME280;2697;42.144;24.794;2023-04-27T02:51:38;155670.81;;;12.03;76.02
5350;BME280;2697;42.144;24.794;2023-04-27T02:54:03;155687.91;;;12.10;75.99
5350;BME280;2697;42.144;24.794;2023-04-27T02:56:29;155662.84;;;12.00;76.32
5350;BME280;2697;42.144;24.794;2023-04-27T02:58:54;155703.75;;;12.16;76.65
5350;BME280;2697;42.144;24.794;2023-04-27T03:01:20;155657.59;;;11.98;76.29
5350;BME280;2697;42.144;24.794;2023-04-27T03:03:46;155660.22;;;11.99;76.13
5350;BME280;2697;42.144;24.794;2023-04-27T03:06:12;155660.22;;;11.99;75.95
5350;BME280;2697;42.144;24.794;2023-04-27T03:08:37;155673.44;;;12.04;75.72
5350;BME280;2697;42.144;24.794;2023-04-27T03:11:03;155665.53;;;12.01;76.48
5350;BME280;2697;42.144;24.794;2023-04-27T03:13:28;155612.78;;;11.81;76.05
5350;BME280;2697;42.144;24.794;2023-04-27T03:15:53;155673.44;;;12.04;76.07
5350;BME280;2697;42.144;24.794;2023-04-27T03:18:19;155668.16;;;12.02;76.52
5350;BME280;2697;42.144;24.794;2023-04-27T03:20:44;155678.69;;;12.06;75.61
5350;BME280;2697;42.144;24.794;2023-04-27T03:23:10;155657.59;;;11.98;75.82
5350;BME280;2697;42.144;24.794;2023-04-27T03:25:36;155676.06;;;12.05;75.63
5350;BME280;2697;42.144;24.794;2023-04-27T03:28:01;155654.97;;;11.97;76.00
5350;BME280;2697;42.144;24.794;2023-04-27T03:30:27;155664.22;;;12.01;74.73
5350;BME280;2697;42.144;24.794;2023-04-27T03:32:52;155647.06;;;11.94;74.99
5350;BME280;2697;42.144;24.794;2023-04-27T03:35:18;155625.97;;;11.86;75.57
5350;BME280;2697;42.144;24.794;2023-04-27T03:37:44;155652.34;;;11.96;75.67
5350;BME280;2697;42.144;24.794;2023-04-27T03:40:10;155680.00;;;12.07;75.52
5350;BME280;2697;42.144;24.794;2023-04-27T03:42:36;155660.22;;;11.99;75.10
5350;BME280;2697;42.144;24.794;2023-04-27T03:45:01;155625.97;;;11.86;75.18
5350;BME280;2697;42.144;24.794;2023-04-27T03:47:27;155631.25;;;11.88;74.99
5350;BME280;2697;42.144;24.794;2023-04-27T03:49:53;155654.97;;;11.97;74.04
5350;BME280;2697;42.144;24.794;2023-04-27T03:52:18;155622.03;;;11.84;74.71
5350;BME280;2697;42.144;24.794;2023-04-27T03:54:43;155623.34;;;11.85;75.22
5350;BME280;2697;42.144;24.794;2023-04-27T03:57:09;155637.81;;;11.90;74.28
5350;BME280;2697;42.144;24.794;2023-04-27T03:59:34;155637.81;;;11.90;75.08
5350;BME280;2697;42.144;24.794;2023-04-27T04:02:00;155618.09;;;11.83;75.13
5350;BME280;2697;42.144;24.794;2023-04-27T04:04:25;155665.53;;;12.01;75.41
5350;BME280;2697;42.144;24.794;2023-04-27T04:06:51;155728.78;;;12.25;73.85
5350;BME280;2697;42.144;24.794;2023-04-27T04:09:16;155701.13;;;12.15;74.30
5350;BME280;2697;42.144;24.794;2023-04-27T04:11:41;155734.06;;;12.27;73.81
5350;BME280;2697;42.144;24.794;2023-04-27T04:14:07;155771.00;;;12.42;72.90
5350;BME280;2697;42.144;24.794;2023-04-27T04:16:33;155768.38;;;12.41;73.13
5350;BME280;2697;42.144;24.794;2023-04-27T04:18:58;155767.06;;;12.40;72.16
5350;BME280;2697;42.144;24.794;2023-04-27T04:21:24;155825.06;;;12.63;72.26
5350;BME280;2697;42.144;24.794;2023-04-27T04:23:49;155851.44;;;12.73;71.66
5350;BME280;2697;42.144;24.794;2023-04-27T04:26:14;155883.13;;;12.85;71.29
5350;BME280;2697;42.144;24.794;2023-04-27T04:28:40;155889.69;;;12.88;70.86
5350;BME280;2697;42.144;24.794;2023-04-27T04:31:06;155959.63;;;13.15;69.34
5350;BME280;2697;42.144;24.794;2023-04-27T04:33:33;155974.16;;;13.20;68.62
5350;BME280;2697;42.144;24.794;2023-04-27T04:36:02;155945.09;;;13.09;69.53
5350;BME280;2697;42.144;24.794;2023-04-27T04:38:28;155953.00;;;13.12;68.97
5350;BME280;2697;42.144;24.794;2023-04-27T04:40:53;155929.31;;;13.03;69.93
5350;BME280;2697;42.144;24.794;2023-04-27T04:43:18;155909.50;;;12.95;69.72
5350;BME280;2697;42.144;24.794;2023-04-27T04:45:44;155900.25;;;12.92;69.11
5350;BME280;2697;42.144;24.794;2023-04-27T04:48:10;155898.91;;;12.91;68.96
5350;BME280;2697;42.144;24.794;2023-04-27T04:50:35;155858.06;;;12.75;68.63
5350;BME280;2697;42.144;24.794;2023-04-27T04:53:01;155929.31;;;13.03;68.73
5350;BME280;2697;42.144;24.794;2023-04-27T04:55:26;155918.72;;;12.99;68.13
5350;BME280;2697;42.144;24.794;2023-04-27T04:57:52;155884.44;;;12.86;68.26
5350;BME280;2697;42.144;24.794;2023-04-27T05:00:18;155926.63;;;13.02;68.23
5350;BME280;2697;42.144;24.794;2023-04-27T05:02:43;155893.66;;;12.89;68.68
5350;BME280;2697;42.144;24.794;2023-04-27T05:05:08;155946.41;;;13.09;69.59
5350;BME280;2697;42.144;24.794;2023-04-27T05:07:34;155937.19;;;13.06;68.45
5350;BME280;2697;42.144;24.794;2023-04-27T05:10:00;155982.13;;;13.23;66.88
5350;BME280;2697;42.144;24.794;2023-04-27T05:12:26;156004.56;;;13.32;67.31
5350;BME280;2697;42.144;24.794;2023-04-27T05:14:52;156083.72;;;13.62;66.05
5350;BME280;2697;42.144;24.794;2023-04-27T05:17:17;156058.66;;;13.53;66.76
5350;BME280;2697;42.144;24.794;2023-04-27T05:19:43;156074.50;;;13.59;66.34
5350;BME280;2697;42.144;24.794;2023-04-27T05:22:10;156119.34;;;13.76;66.54
5350;BME280;2697;42.144;24.794;2023-04-27T05:24:36;156056.00;;;13.52;65.83
5350;BME280;2697;42.144;24.794;2023-04-27T05:27:01;156156.31;;;13.90;65.03
5350;BME280;2697;42.144;24.794;2023-04-27T05:29:27;156176.13;;;13.98;65.11
5350;BME280;2697;42.144;24.794;2023-04-27T05:31:52;156176.13;;;13.98;64.72
5350;BME280;2697;42.144;24.794;2023-04-27T05:34:18;156152.38;;;13.89;64.91
5350;BME280;2697;42.144;24.794;2023-04-27T05:36:43;156140.47;;;13.84;64.27
5350;BME280;2697;42.144;24.794;2023-04-27T05:39:11;156108.81;;;13.72;64.75
5350;BME280;2697;42.144;24.794;2023-04-27T05:41:36;156137.84;;;13.83;65.08
5350;BME280;2697;42.144;24.794;2023-04-27T05:44:02;156158.97;;;13.91;64.81
5350;BME280;2697;42.144;24.794;2023-04-27T05:46:27;156100.91;;;13.69;64.81
5350;BME280;2697;42.144;24.794;2023-04-27T05:48:53;156132.56;;;13.81;64.20
5350;BME280;2697;42.144;24.794;2023-04-27T05:51:18;156119.34;;;13.76;64.27
5350;BME280;2697;42.144;24.794;2023-04-27T05:53:43;156160.28;;;13.92;63.81
5350;BME280;2697;42.144;24.794;2023-04-27T05:56:09;156053.38;;;13.51;64.76
5350;BME280;2697;42.144;24.794;2023-04-27T05:58:36;156077.13;;;13.60;63.20
5350;BME280;2697;42.144;24.794;2023-04-27T06:01:01;156152.38;;;13.89;63.02
5350;BME280;2697;42.144;24.794;2023-04-27T06:03:28;156062.59;;;13.54;63.36
5350;BME280;2697;42.144;24.794;2023-04-27T06:05:55;156082.41;;;13.62;64.31
5350;BME280;2697;42.144;24.794;2023-04-27T06:08:21;156100.91;;;13.69;63.45
5350;BME280;2697;42.144;24.794;2023-04-27T06:10:46;156078.47;;;13.60;63.28
5350;BME280;2697;42.144;24.794;2023-04-27T06:13:12;156053.38;;;13.51;62.69
5350;BME280;2697;42.144;24.794;2023-04-27T06:15:37;156085.03;;;13.63;62.92
5350;BME280;2697;42.144;24.794;2023-04-27T06:18:03;156195.94;;;14.06;62.53
5350;BME280;2697;42.144;24.794;2023-04-27T06:20:28;156143.09;;;13.85;62.06
5350;BME280;2697;42.144;24.794;2023-04-27T06:22:53;156206.50;;;14.10;61.53
5350;BME280;2697;42.144;24.794;2023-04-27T06:25:19;156168.19;;;13.95;61.48
5350;BME280;2697;42.144;24.794;2023-04-27T06:27:44;156177.47;;;13.98;60.70
5350;BME280;2697;42.144;24.794;2023-04-27T06:30:10;156152.38;;;13.89;60.37
5350;BME280;2697;42.144;24.794;2023-04-27T06:32:36;156137.84;;;13.83;60.60
5350;BME280;2697;42.144;24.794;2023-04-27T06:35:01;156182.72;;;14.01;60.21
5350;BME280;2697;42.144;24.794;2023-04-27T06:37:26;156151.06;;;13.88;61.46
5350;BME280;2697;42.144;24.794;2023-04-27T06:39:52;156021.66;;;13.38;61.33
5350;BME280;2697;42.144;24.794;2023-04-27T06:42:17;156061.28;;;13.54;62.15
5350;BME280;2697;42.144;24.794;2023-04-27T06:44:42;156092.94;;;13.66;61.84
5350;BME280;2697;42.144;24.794;2023-04-27T06:47:08;156116.69;;;13.75;61.46
5350;BME280;2697;42.144;24.794;2023-04-27T06:49:33;156128.59;;;13.80;61.77
5350;BME280;2697;42.144;24.794;2023-04-27T06:52:01;156111.44;;;13.73;61.74
5350;BME280;2697;42.144;24.794;2023-04-27T06:54:26;156173.50;;;13.97;61.64
5350;BME280;2697;42.144;24.794;2023-04-27T06:56:52;156158.97;;;13.91;61.29
5350;BME280;2697;42.144;24.794;2023-04-27T06:59:19;156119.34;;;13.76;61.53
5350;BME280;2697;42.144;24.794;2023-04-27T07:01:45;156158.97;;;13.91;61.15
5350;BME280;2697;42.144;24.794;2023-04-27T07:04:11;156206.50;;;14.10;62.04
5350;BME280;2697;42.144;24.794;2023-04-27T07:06:36;156275.16;;;14.36;60.77
5350;BME280;2697;42.144;24.794;2023-04-27T07:09:02;156318.81;;;14.53;60.78
5350;BME280;2697;42.144;24.794;2023-04-27T07:11:30;156301.63;;;14.46;60.56
5350;BME280;2697;42.144;24.794;2023-04-27T07:13:55;156312.16;;;14.50;60.39
5350;BME280;2697;42.144;24.794;2023-04-27T07:16:21;156375.59;;;14.75;60.42
5350;BME280;2697;42.144;24.794;2023-04-27T07:18:46;156546.03;;;15.40;58.49
5350;BME280;2697;42.144;24.794;2023-04-27T07:21:12;156384.81;;;14.78;59.16
5350;BME280;2697;42.144;24.794;2023-04-27T07:23:38;156391.47;;;14.81;59.71
5350;BME280;2697;42.144;24.794;2023-04-27T07:26:04;156441.66;;;15.00;59.42
5350;BME280;2697;42.144;24.794;2023-04-27T07:28:29;156511.72;;;15.27;58.29
5350;BME280;2697;42.144;24.794;2023-04-27T07:30:55;156409.91;;;14.88;59.70
5350;BME280;2697;42.144;24.794;2023-04-27T07:33:22;156544.72;;;15.40;58.59
5350;BME280;2697;42.144;24.794;2023-04-27T07:35:47;156592.31;;;15.58;57.58
5350;BME280;2697;42.144;24.794;2023-04-27T07:38:14;156600.28;;;15.61;58.02
5350;BME280;2697;42.144;24.794;2023-04-27T07:40:41;156616.16;;;15.67;57.42
5350;BME280;2697;42.144;24.794;2023-04-27T07:43:06;156573.78;;;15.51;57.92
5350;BME280;2697;42.144;24.794;2023-04-27T07:45:33;156571.16;;;15.50;59.08
5350;BME280;2697;42.144;24.794;2023-04-27T07:48:01;156683.59;;;15.93;57.97
5350;BME280;2697;42.144;24.794;2023-04-27T07:50:30;156655.84;;;15.83;57.01
5350;BME280;2697;42.144;24.794;2023-04-27T07:52:56;156682.28;;;15.93;56.54
5350;BME280;2697;42.144;24.794;2023-04-27T07:55:22;156752.38;;;16.20;56.40
5350;BME280;2697;42.144;24.794;2023-04-27T07:57:55;156809.22;;;16.42;56.51
5350;BME280;2697;42.144;24.794;2023-04-27T08:00:21;156774.84;;;16.29;55.97
5350;BME280;2697;42.144;24.794;2023-04-27T08:02:47;156727.25;;;16.10;56.29
5350;BME280;2697;42.144;24.794;2023-04-27T08:05:12;156769.53;;;16.27;55.75
5350;BME280;2697;42.144;24.794;2023-04-27T08:07:38;156843.59;;;16.55;54.98
5350;BME280;2697;42.144;24.794;2023-04-27T08:10:07;156833.03;;;16.51;54.22
5350;BME280;2697;42.144;24.794;2023-04-27T08:12:32;156876.69;;;16.68;51.57
5350;BME280;2697;42.144;24.794;2023-04-27T08:14:58;156793.31;;;16.36;51.51
5350;BME280;2697;42.144;24.794;2023-04-27T08:17:23;156776.16;;;16.29;51.96
5350;BME280;2697;42.144;24.794;2023-04-27T08:19:49;156899.25;;;16.76;51.41
5350;BME280;2697;42.144;24.794;2023-04-27T08:22:15;156883.34;;;16.70;50.97
5350;BME280;2697;42.144;24.794;2023-04-27T08:24:41;157026.25;;;17.25;49.91
5350;BME280;2697;42.144;24.794;2023-04-27T08:27:06;156944.22;;;16.94;51.37
5350;BME280;2697;42.144;24.794;2023-04-27T08:29:32;157083.16;;;17.47;49.44
5350;BME280;2697;42.144;24.794;2023-04-27T08:31:59;157128.16;;;17.64;49.49
5350;BME280;2697;42.144;24.794;2023-04-27T08:34:26;157208.97;;;17.95;48.40
5350;BME280;2697;42.144;24.794;2023-04-27T08:36:51;157103.03;;;17.55;49.53
5350;BME280;2697;42.144;24.794;2023-04-27T08:39:18;157216.94;;;17.99;47.95
5350;BME280;2697;42.144;24.794;2023-04-27T08:41:43;157269.91;;;18.19;46.93
5350;BME280;2697;42.144;24.794;2023-04-27T08:44:09;157031.53;;;17.27;49.14
5350;BME280;2697;42.144;24.794;2023-04-27T08:46:35;157076.53;;;17.45;49.10
5350;BME280;2697;42.144;24.794;2023-04-27T08:49:01;157105.66;;;17.56;48.74
5350;BME280;2697;42.144;24.794;2023-04-27T08:51:27;157246.06;;;18.10;47.77
5350;BME280;2697;42.144;24.794;2023-04-27T08:53:54;157120.25;;;17.61;49.07
5350;BME280;2697;42.144;24.794;2023-04-27T08:56:22;157272.56;;;18.20;48.29
5350;BME280;2697;42.144;24.794;2023-04-27T08:58:49;157329.50;;;18.42;47.78
5350;BME280;2697;42.144;24.794;2023-04-27T09:01:15;157299.03;;;18.30;48.02
5350;BME280;2697;42.144;24.794;2023-04-27T09:03:41;157652.97;;;19.66;45.06
5350;BME280;2697;42.144;24.794;2023-04-27T09:06:07;157733.84;;;19.97;44.42
5350;BME280;2697;42.144;24.794;2023-04-27T09:08:43;157683.47;;;19.78;45.08
5350;BME280;2697;42.144;24.794;2023-04-27T09:11:09;157426.25;;;18.79;48.93
5350;BME280;2697;42.144;24.794;2023-04-27T09:13:38;157630.44;;;19.57;45.75
5350;BME280;2697;42.144;24.794;2023-04-27T09:16:04;157704.69;;;19.86;43.68
5350;BME280;2697;42.144;24.794;2023-04-27T09:18:33;157776.28;;;20.13;41.82
5350;BME280;2697;42.144;24.794;2023-04-27T09:20:59;157696.75;;;19.83;44.05
5350;BME280;2697;42.144;24.794;2023-04-27T09:23:29;157418.31;;;18.76;47.14
5350;BME280;2697;42.144;24.794;2023-04-27T09:25:57;157269.91;;;18.19;43.88
5350;BME280;2697;42.144;24.794;2023-04-27T09:28:27;157370.56;;;18.58;43.95
5350;BME280;2697;42.144;24.794;2023-04-27T09:30:57;157470.00;;;18.96;43.23
5350;BME280;2697;42.144;24.794;2023-04-27T09:33:23;157386.47;;;18.64;44.55
5350;BME280;2697;42.144;24.794;2023-04-27T09:35:51;157477.97;;;18.99;43.63
5350;BME280;2697;42.144;24.794;2023-04-27T09:38:20;157497.81;;;19.06;43.35
5350;BME280;2697;42.144;24.794;2023-04-27T09:40:47;157614.47;;;19.51;42.39
5350;BME280;2697;42.144;24.794;2023-04-27T09:43:13;157666.22;;;19.71;43.80
5350;BME280;2697;42.144;24.794;2023-04-27T09:45:39;157732.53;;;19.97;43.17
5350;BME280;2697;42.144;24.794;2023-04-27T09:48:05;157627.78;;;19.56;43.17
5350;BME280;2697;42.144;24.794;2023-04-27T09:50:35;157525.69;;;19.17;46.79
5350;BME280;2697;42.144;24.794;2023-04-27T09:53:02;157344.09;;;18.47;48.49
5350;BME280;2697;42.144;24.794;2023-04-27T09:55:34;157440.84;;;18.85;48.23
5350;BME280;2697;42.144;24.794;2023-04-27T10:09:09;157226.19;;;18.02;49.40
5350;BME280;2697;42.144;24.794;2023-04-27T10:11:41;157140.13;;;17.69;51.24
5350;BME280;2697;42.144;24.794;2023-04-27T10:14:09;157050.09;;;17.34;51.58
5350;BME280;2697;42.144;24.794;2023-04-27T10:16:46;157052.72;;;17.35;50.92
5350;BME280;2697;42.144;24.794;2023-04-27T10:19:13;157101.69;;;17.54;50.80
5350;BME280;2697;42.144;24.794;2023-04-27T10:21:55;157054.03;;;17.36;52.56
5350;BME280;2697;42.144;24.794;2023-04-27T10:24:39;157036.81;;;17.29;50.54
5350;BME280;2697;42.144;24.794;2023-04-27T10:27:10;157097.75;;;17.53;51.90
5350;BME280;2697;42.144;24.794;2023-04-27T10:29:37;157224.88;;;18.02;50.98
5350;BME280;2697;42.144;24.794;2023-04-27T10:32:07;157178.53;;;17.84;51.00
5350;BME280;2697;42.144;24.794;2023-04-27T10:34:34;157175.88;;;17.83;51.57
5350;BME280;2697;42.144;24.794;2023-04-27T10:37:07;157287.16;;;18.26;50.83
5350;BME280;2697;42.144;24.794;2023-04-27T10:39:35;157321.56;;;18.39;48.27
5350;BME280;2697;42.144;24.794;2023-04-27T10:42:02;157314.94;;;18.36;49.33
5350;BME280;2697;42.144;24.794;2023-04-27T10:44:29;157197.06;;;17.91;50.87
5350;BME280;2697;42.144;24.794;2023-04-27T10:46:56;157201.03;;;17.92;51.88
5350;BME280;2697;42.144;24.794;2023-04-27T10:49:26;157216.94;;;17.99;50.67
5350;BME280;2697;42.144;24.794;2023-04-27T10:51:52;157224.88;;;18.02;50.16
5350;BME280;2697;42.144;24.794;2023-04-27T10:54:18;157177.22;;;17.83;49.10
5350;BME280;2697;42.144;24.794;2023-04-27T10:56:43;157261.97;;;18.16;47.71
5350;BME280;2697;42.144;24.794;2023-04-27T10:59:09;157324.22;;;18.40;47.15
5350;BME280;2697;42.144;24.794;2023-04-27T11:01:35;157459.41;;;18.92;43.89
5350;BME280;2697;42.144;24.794;2023-04-27T11:04:02;157426.25;;;18.79;45.37
5350;BME280;2697;42.144;24.794;2023-04-27T11:06:28;157361.31;;;18.54;43.85
5350;BME280;2697;42.144;24.794;2023-04-27T11:08:55;157352.00;;;18.50;44.05
5350;BME280;2697;42.144;24.794;2023-04-27T11:11:20;157358.69;;;18.53;43.29
5350;BME280;2697;42.144;24.794;2023-04-27T11:13:49;157275.19;;;18.21;43.22
5350;BME280;2697;42.144;24.794;2023-04-27T11:16:17;157330.81;;;18.42;44.01
5350;BME280;2697;42.144;24.794;2023-04-27T11:18:46;157353.34;;;18.51;43.37
5350;BME280;2697;42.144;24.794;2023-04-27T11:21:15;157379.81;;;18.61;43.63
5350;BME280;2697;42.144;24.794;2023-04-27T11:23:42;157340.13;;;18.46;43.78
5350;BME280;2697;42.144;24.794;2023-04-27T11:26:15;157341.44;;;18.46;44.27
5350;BME280;2697;42.144;24.794;2023-04-27T11:28:42;157306.97;;;18.33;43.67
5350;BME280;2697;42.144;24.794;2023-04-27T11:31:08;157251.34;;;18.12;43.96
5350;BME280;2697;42.144;24.794;2023-04-27T11:33:33;157348.06;;;18.49;43.41
5350;BME280;2697;42.144;24.794;2023-04-27T11:35:59;157381.19;;;18.62;43.30
5350;BME280;2697;42.144;24.794;2023-04-27T11:38:25;157444.81;;;18.86;43.39
5350;BME280;2697;42.144;24.794;2023-04-27T11:41:04;157489.88;;;19.03;42.77
5350;BME280;2697;42.144;24.794;2023-04-27T11:43:30;157542.88;;;19.24;41.43
5350;BME280;2697;42.144;24.794;2023-04-27T11:45:56;157488.56;;;19.03;42.54
5350;BME280;2697;42.144;24.794;2023-04-27T11:48:23;157558.81;;;19.30;41.72
5350;BME280;2697;42.144;24.794;2023-04-27T11:50:49;157755.06;;;20.05;40.87
5350;BME280;2697;42.144;24.794;2023-04-27T11:53:15;157680.81;;;19.77;40.95
5350;BME280;2697;42.144;24.794;2023-04-27T11:55:41;157626.47;;;19.56;40.93
5350;BME280;2697;42.144;24.794;2023-04-27T11:58:14;157639.69;;;19.61;40.02
5350;BME280;2697;42.144;24.794;2023-04-27T12:00:40;157749.78;;;20.03;39.42
5350;BME280;2697;42.144;24.794;2023-04-27T12:03:05;157756.38;;;20.06;38.51
5350;BME280;2697;42.144;24.794;2023-04-27T12:05:31;157715.25;;;19.90;39.52
5350;BME280;2697;42.144;24.794;2023-04-27T12:07:57;157602.56;;;19.47;40.81
5350;BME280;2697;42.144;24.794;2023-04-27T12:10:23;157672.88;;;19.74;38.99
5350;BME280;2697;42.144;24.794;2023-04-27T12:12:49;157656.94;;;19.68;38.99
5350;BME280;2697;42.144;24.794;2023-04-27T12:15:14;157627.78;;;19.56;39.62
5350;BME280;2697;42.144;24.794;2023-04-27T12:17:40;157630.44;;;19.57;39.90
5350;BME280;2697;42.144;24.794;2023-04-27T12:20:06;157386.47;;;18.64;40.38
5350;BME280;2697;42.144;24.794;2023-04-27T12:22:31;157257.97;;;18.14;41.11
5350;BME280;2697;42.144;24.794;2023-04-27T12:24:57;157507.13;;;19.10;40.60
5350;BME280;2697;42.144;24.794;2023-04-27T12:27:22;157678.16;;;19.76;40.73
5350;BME280;2697;42.144;24.794;2023-04-27T12:29:48;157756.38;;;20.06;41.38
5350;BME280;2697;42.144;24.794;2023-04-27T12:32:13;157619.75;;;19.53;40.67
5350;BME280;2697;42.144;24.794;2023-04-27T12:34:39;157768.34;;;20.10;40.44
5350;BME280;2697;42.144;24.794;2023-04-27T12:37:04;157744.47;;;20.01;37.21
5350;BME280;2697;42.144;24.794;2023-04-27T12:39:30;157695.41;;;19.82;37.35
5350;BME280;2697;42.144;24.794;2023-04-27T12:41:56;157692.72;;;19.81;36.57
5350;BME280;2697;42.144;24.794;2023-04-27T12:44:23;157688.75;;;19.80;36.92
5350;BME280;2697;42.144;24.794;2023-04-27T12:46:49;157736.50;;;19.98;38.58
5350;BME280;2697;42.144;24.794;2023-04-27T12:49:15;157684.78;;;19.78;39.49
5350;BME280;2697;42.144;24.794;2023-04-27T12:51:41;157537.59;;;19.22;41.00
5350;BME280;2697;42.144;24.794;2023-04-27T12:54:07;157314.94;;;18.36;42.88
5350;BME280;2697;42.144;24.794;2023-04-27T12:56:34;157281.81;;;18.23;44.18
5350;BME280;2697;42.144;24.794;2023-04-27T12:58:59;157211.66;;;17.97;44.48
5350;BME280;2697;42.144;24.794;2023-04-27T13:01:25;157166.63;;;17.79;43.18
5350;BME280;2697;42.144;24.794;2023-04-27T13:03:58;157092.44;;;17.51;44.85
5350;BME280;2697;42.144;24.794;2023-04-27T13:06:25;157193.13;;;17.89;44.04